Isis — OEX5261 — position and weather

sailwx.info

Track history (hours):
 
Tides and Currents Weather Stations Pressure Air Temp Water Temp Dewpoint Dewpoint Depression Visibility Wind Speed Wind Dir Waves Ship Positions

Isis

Last reported at 2017-Nov-03 10:41 UTC. Time now 2017-Nov-20 23:11 UTC.
Position N 28°27' W 016°02'.
Warning: this ship's position is 17 days out of date.

Length 14 m.

Type: Sailing vessel. MMSI: 203249200.

Date/timePositionNaut miles runAvg speedWind from/ knotsBaromVisibWave heightAir tempDewpointWater temp
2017-Nov-03 10:41N 28°27' W 016°02'2 3.3
2017-Nov-03 10:00N 28°26' W 015°59'2 3.5
2017-Nov-03 09:29N 28°26' W 015°57'2 4.5
2017-Nov-03 08:58N 28°25' W 015°55'2 5.0
2017-Nov-03 08:28N 28°25' W 015°52'2 3.0
2017-Nov-03 07:57N 28°25' W 015°50'2 3.6
2017-Nov-03 07:27N 28°25' W 015°48'2 3.7
2017-Nov-03 06:56N 28°25' W 015°46'2 3.2
2017-Nov-03 06:25N 28°25' W 015°44'1 3.1
2017-Nov-03 06:00N 28°24' W 015°43'2 3.7
2017-Nov-03 05:30N 28°24' W 015°40'2 4.2
2017-Nov-03 05:01N 28°24' W 015°38'2 4.4
2017-Nov-03 04:31N 28°23' W 015°36'2 4.9
2017-Nov-03 04:00N 28°23' W 015°33'2 5.0
2017-Nov-03 03:30N 28°22' W 015°30'2 4.5
2017-Nov-03 03:01N 28°22' W 015°28'2 4.5
2017-Nov-03 02:30N 28°21' W 015°25'2 4.5
2017-Nov-03 02:00N 28°20' W 015°23'1 2.7
2017-Nov-03 01:30N 28°20' W 015°21'1 2.9
2017-Nov-03 00:59N 28°20' W 015°20'1 2.6
2017-Nov-03 00:28N 28°19' W 015°18'2 3.4
2017-Nov-02 23:58N 28°19' W 015°16'2 3.5
2017-Nov-02 23:27N 28°18' W 015°15'2 3.4
2017-Nov-02 22:56N 28°18' W 015°13'2 4.2
2017-Nov-02 22:25N 28°17' W 015°10'2 4.5
2017-Nov-02 22:00N 28°16' W 015°08'2 4.6
2017-Nov-02 21:30N 28°16' W 015°06'3 5.4
2017-Nov-02 21:00N 28°15' W 015°03'3 5.5
2017-Nov-02 20:30N 28°14' W 015°00'2 4.9
2017-Nov-02 20:00N 28°13' W 014°58'2 3.8
2017-Nov-02 19:30N 28°12' W 014°56'3 5.1
2017-Nov-02 19:01N 28°11' W 014°53'3 5.1
2017-Nov-02 18:30N 28°10' W 014°50'2 4.7
2017-Nov-02 18:00N 28°09' W 014°48'2 4.3
2017-Nov-02 17:30N 28°08' W 014°46'2 4.3
2017-Nov-02 16:58N 28°07' W 014°43'2 4.3
2017-Nov-02 16:28N 28°06' W 014°41'2 3.6
2017-Nov-02 15:58N 28°06' W 014°39'  
2017-Oct-29 18:48N 28°03' W 014°21'0 0.0
2017-Oct-29 18:30N 28°03' W 014°21'0 0.0
2017-Oct-29 18:00N 28°03' W 014°21'0 0.0
2017-Oct-29 17:30N 28°03' W 014°21'0 0.0
2017-Oct-29 16:45N 28°03' W 014°21'0 0.0
2017-Oct-29 15:33N 28°03' W 014°21'0 0.0
2017-Oct-29 15:18N 28°03' W 014°21'0 0.0
2017-Oct-29 14:51N 28°03' W 014°21'0 0.0
2017-Oct-29 14:06N 28°03' W 014°21'0 0.0
2017-Oct-29 13:54N 28°03' W 014°21'0 0.0
2017-Oct-29 13:24N 28°03' W 014°21'0 0.0
2017-Oct-29 12:51N 28°03' W 014°21'0 0.0
2017-Oct-29 12:24N 28°03' W 014°21'0 0.0
2017-Oct-29 11:51N 28°03' W 014°21'0 0.0
2017-Oct-29 11:24N 28°03' W 014°21'0 0.0
2017-Oct-29 10:57N 28°03' W 014°21'0 0.0
2017-Oct-29 10:12N 28°03' W 014°21'0 0.0
2017-Oct-29 09:53N 28°03' W 014°21'2 3.9
2017-Oct-29 09:30N 28°03' W 014°23'3 4.6
2017-Oct-29 08:53N 28°03' W 014°26'2 4.6
2017-Oct-29 08:30N 28°03' W 014°28'2 4.5
2017-Oct-29 08:00N 28°03' W 014°31'3 5.4
2017-Oct-29 07:29N 28°04' W 014°33'3 6.7
2017-Oct-29 07:00N 28°05' W 014°37'3 6.2
2017-Oct-29 06:30N 28°06' W 014°40'3 6.0
2017-Oct-29 05:59N 28°07' W 014°44'3 5.4
2017-Oct-29 05:29N 28°07' W 014°47'3 5.5
2017-Oct-29 04:54N 28°08' W 014°50'3 5.8
2017-Oct-29 04:27N 28°09' W 014°53'4 5.4
2017-Oct-29 03:45N 28°10' W 014°57'37 4.2
2017-Oct-28 18:56N 28°21' W 015°38'3 5.5
2017-Oct-28 18:26N 28°22' W 015°40'7 5.2
2017-Oct-28 17:00N 28°26' W 015°48'2 4.8
2017-Oct-28 16:30N 28°27' W 015°50'2 4.1
2017-Oct-28 16:00N 28°28' W 015°52'2 3.9
2017-Oct-28 15:30N 28°29' W 015°54'2 4.1
2017-Oct-28 15:00N 28°30' W 015°56'2 4.4
2017-Oct-28 14:30N 28°31' W 015°59'2 4.1
2017-Oct-28 14:00N 28°32' W 016°00'2 3.4
2017-Oct-28 13:29N 28°33' W 016°02'2 3.3
2017-Oct-28 12:58N 28°32' W 016°04'  
Track history (hours):
 
Tides and Currents Weather Stations Pressure Air Temp Water Temp Dewpoint Dewpoint Depression Visibility Wind Speed Wind Dir Waves Ship Positions

Isis

Last reported at 2017-Nov-03 10:41 UTC. Time now 2017-Nov-20 23:11 UTC.
Position N 28°27' W 016°02'.
Warning: this ship's position is 17 days out of date.

Length 14 m.

Type: Sailing vessel. MMSI: 203249200.

Date/timePositionNaut miles runAvg speedWind from/ knotsBaromVisibWave heightAir tempDewpointWater temp
2017-Nov-03 10:41N 28°27' W 016°02'2 3.3
2017-Nov-03 10:00N 28°26' W 015°59'2 3.5
2017-Nov-03 09:29N 28°26' W 015°57'2 4.5
2017-Nov-03 08:58N 28°25' W 015°55'2 5.0
2017-Nov-03 08:28N 28°25' W 015°52'2 3.0
2017-Nov-03 07:57N 28°25' W 015°50'2 3.6
2017-Nov-03 07:27N 28°25' W 015°48'2 3.7
2017-Nov-03 06:56N 28°25' W 015°46'2 3.2
2017-Nov-03 06:25N 28°25' W 015°44'1 3.1
2017-Nov-03 06:00N 28°24' W 015°43'2 3.7
2017-Nov-03 05:30N 28°24' W 015°40'2 4.2
2017-Nov-03 05:01N 28°24' W 015°38'2 4.4
2017-Nov-03 04:31N 28°23' W 015°36'2 4.9
2017-Nov-03 04:00N 28°23' W 015°33'2 5.0
2017-Nov-03 03:30N 28°22' W 015°30'2 4.5
2017-Nov-03 03:01N 28°22' W 015°28'2 4.5
2017-Nov-03 02:30N 28°21' W 015°25'2 4.5
2017-Nov-03 02:00N 28°20' W 015°23'1 2.7
2017-Nov-03 01:30N 28°20' W 015°21'1 2.9
2017-Nov-03 00:59N 28°20' W 015°20'1 2.6
2017-Nov-03 00:28N 28°19' W 015°18'2 3.4
2017-Nov-02 23:58N 28°19' W 015°16'2 3.5
2017-Nov-02 23:27N 28°18' W 015°15'2 3.4
2017-Nov-02 22:56N 28°18' W 015°13'2 4.2
2017-Nov-02 22:25N 28°17' W 015°10'2 4.5
2017-Nov-02 22:00N 28°16' W 015°08'2 4.6
2017-Nov-02 21:30N 28°16' W 015°06'3 5.4
2017-Nov-02 21:00N 28°15' W 015°03'3 5.5
2017-Nov-02 20:30N 28°14' W 015°00'2 4.9
2017-Nov-02 20:00N 28°13' W 014°58'2 3.8
2017-Nov-02 19:30N 28°12' W 014°56'3 5.1
2017-Nov-02 19:01N 28°11' W 014°53'3 5.1
2017-Nov-02 18:30N 28°10' W 014°50'2 4.7
2017-Nov-02 18:00N 28°09' W 014°48'2 4.3
2017-Nov-02 17:30N 28°08' W 014°46'2 4.3
2017-Nov-02 16:58N 28°07' W 014°43'2 4.3
2017-Nov-02 16:28N 28°06' W 014°41'2 3.6
2017-Nov-02 15:58N 28°06' W 014°39'  
2017-Oct-29 18:48N 28°03' W 014°21'0 0.0
2017-Oct-29 18:30N 28°03' W 014°21'0 0.0
2017-Oct-29 18:00N 28°03' W 014°21'0 0.0
2017-Oct-29 17:30N 28°03' W 014°21'0 0.0
2017-Oct-29 16:45N 28°03' W 014°21'0 0.0
2017-Oct-29 15:33N 28°03' W 014°21'0 0.0
2017-Oct-29 15:18N 28°03' W 014°21'0 0.0
2017-Oct-29 14:51N 28°03' W 014°21'0 0.0
2017-Oct-29 14:06N 28°03' W 014°21'0 0.0
2017-Oct-29 13:54N 28°03' W 014°21'0 0.0
2017-Oct-29 13:24N 28°03' W 014°21'0 0.0
2017-Oct-29 12:51N 28°03' W 014°21'0 0.0
2017-Oct-29 12:24N 28°03' W 014°21'0 0.0
2017-Oct-29 11:51N 28°03' W 014°21'0 0.0
2017-Oct-29 11:24N 28°03' W 014°21'0 0.0
2017-Oct-29 10:57N 28°03' W 014°21'0 0.0
2017-Oct-29 10:12N 28°03' W 014°21'0 0.0
2017-Oct-29 09:53N 28°03' W 014°21'2 3.9
2017-Oct-29 09:30N 28°03' W 014°23'3 4.6
2017-Oct-29 08:53N 28°03' W 014°26'2 4.6
2017-Oct-29 08:30N 28°03' W 014°28'2 4.5
2017-Oct-29 08:00N 28°03' W 014°31'3 5.4
2017-Oct-29 07:29N 28°04' W 014°33'3 6.7
2017-Oct-29 07:00N 28°05' W 014°37'3 6.2
2017-Oct-29 06:30N 28°06' W 014°40'3 6.0
2017-Oct-29 05:59N 28°07' W 014°44'3 5.4
2017-Oct-29 05:29N 28°07' W 014°47'3 5.5
2017-Oct-29 04:54N 28°08' W 014°50'3 5.8
2017-Oct-29 04:27N 28°09' W 014°53'4 5.4
2017-Oct-29 03:45N 28°10' W 014°57'37 4.2
2017-Oct-28 18:56N 28°21' W 015°38'3 5.5
2017-Oct-28 18:26N 28°22' W 015°40'7 5.2
2017-Oct-28 17:00N 28°26' W 015°48'2 4.8
2017-Oct-28 16:30N 28°27' W 015°50'2 4.1
2017-Oct-28 16:00N 28°28' W 015°52'2 3.9
2017-Oct-28 15:30N 28°29' W 015°54'2 4.1
2017-Oct-28 15:00N 28°30' W 015°56'2 4.4
2017-Oct-28 14:30N 28°31' W 015°59'2 4.1
2017-Oct-28 14:00N 28°32' W 016°00'2 3.4
2017-Oct-28 13:29N 28°33' W 016°02'2 3.3
2017-Oct-28 12:58N 28°32' W 016°04'  

Dump ship's entire track history